sensor_id;sensor_type;location;lat;lon;timestamp;temperature;humidity
66328;DHT22;53133;52.862;6.602;2022-09-16T00:00:22;12.90;99.90
66328;DHT22;53133;52.862;6.602;2022-09-16T00:02:50;12.90;99.90
66328;DHT22;53133;52.862;6.602;2022-09-16T00:05:16;12.90;99.90
66328;DHT22;53133;52.862;6.602;2022-09-16T00:07:42;13.00;99.90
66328;DHT22;53133;52.862;6.602;2022-09-16T00:10:08;13.00;99.90
66328;DHT22;53133;52.862;6.602;2022-09-16T00:12:33;13.00;99.90
66328;DHT22;53133;52.862;6.602;2022-09-16T00:14:59;13.10;99.90
66328;DHT22;53133;52.862;6.602;2022-09-16T00:17:25;13.00;99.90
66328;DHT22;53133;52.862;6.602;2022-09-16T00:19:50;13.00;99.90
66328;DHT22;53133;52.862;6.602;2022-09-16T00:22:17;13.00;99.90
66328;DHT22;53133;52.862;6.602;2022-09-16T00:24:43;13.00;99.90
66328;DHT22;53133;52.862;6.602;2022-09-16T00:27:09;13.00;99.90
66328;DHT22;53133;52.862;6.602;2022-09-16T00:29:35;13.00;99.90
66328;DHT22;53133;52.862;6.602;2022-09-16T00:32:00;13.00;99.90
66328;DHT22;53133;52.862;6.602;2022-09-16T00:34:26;13.00;99.90
66328;DHT22;53133;52.862;6.602;2022-09-16T00:36:52;13.00;99.90
66328;DHT22;53133;52.862;6.602;2022-09-16T00:39:17;13.10;99.90
66328;DHT22;53133;52.862;6.602;2022-09-16T00:41:43;13.10;99.90
66328;DHT22;53133;52.862;6.602;2022-09-16T00:47:13;13.10;99.90
66328;DHT22;53133;52.862;6.602;2022-09-16T00:49:41;13.00;99.90
66328;DHT22;53133;52.862;6.602;2022-09-16T00:52:08;13.00;99.90
66328;DHT22;53133;52.862;6.602;2022-09-16T00:54:35;13.00;99.90
66328;DHT22;53133;52.862;6.602;2022-09-16T00:57:02;12.90;99.90
66328;DHT22;53133;52.862;6.602;2022-09-16T00:59:30;13.00;99.90
66328;DHT22;53133;52.862;6.602;2022-09-16T01:01:59;12.90;99.90
66328;DHT22;53133;52.862;6.602;2022-09-16T01:04:31;12.90;99.90
66328;DHT22;53133;52.862;6.602;2022-09-16T01:06:57;12.90;99.90
66328;DHT22;53133;52.862;6.602;2022-09-16T01:09:23;12.90;99.90
66328;DHT22;53133;52.862;6.602;2022-09-16T01:11:50;12.90;99.90
66328;DHT22;53133;52.862;6.602;2022-09-16T01:14:17;12.90;99.90
66328;DHT22;53133;52.862;6.602;2022-09-16T01:32:03;12.90;99.90
66328;DHT22;53133;52.862;6.602;2022-09-16T01:40:14;12.90;99.90
66328;DHT22;53133;52.862;6.602;2022-09-16T01:50:50;12.90;99.90
66328;DHT22;53133;52.862;6.602;2022-09-16T01:53:26;12.90;99.90
66328;DHT22;53133;52.862;6.602;2022-09-16T01:56:08;12.90;99.90
66328;DHT22;53133;52.862;6.602;2022-09-16T01:58:53;12.90;99.90
66328;DHT22;53133;52.862;6.602;2022-09-16T02:01:32;12.90;99.90
66328;DHT22;53133;52.862;6.602;2022-09-16T02:04:06;12.90;99.90
66328;DHT22;53133;52.862;6.602;2022-09-16T02:06:34;12.90;99.90
66328;DHT22;53133;52.862;6.602;2022-09-16T02:09:08;13.00;99.90
66328;DHT22;53133;52.862;6.602;2022-09-16T02:11:35;13.00;99.90
66328;DHT22;53133;52.862;6.602;2022-09-16T02:14:14;13.00;99.90
66328;DHT22;53133;52.862;6.602;2022-09-16T02:17:01;12.90;99.90
66328;DHT22;53133;52.862;6.602;2022-09-16T02:19:40;12.90;99.90
66328;DHT22;53133;52.862;6.602;2022-09-16T02:22:09;12.90;99.90
66328;DHT22;53133;52.862;6.602;2022-09-16T02:24:37;12.90;99.90
66328;DHT22;53133;52.862;6.602;2022-09-16T02:27:09;12.90;99.90
66328;DHT22;53133;52.862;6.602;2022-09-16T02:29:48;12.80;99.90
66328;DHT22;53133;52.862;6.602;2022-09-16T02:32:17;12.80;99.90
66328;DHT22;53133;52.862;6.602;2022-09-16T02:34:46;12.80;99.90
66328;DHT22;53133;52.862;6.602;2022-09-16T02:37:37;12.80;99.90
66328;DHT22;53133;52.862;6.602;2022-09-16T02:40:10;12.70;99.90
66328;DHT22;53133;52.862;6.602;2022-09-16T02:42:36;12.70;99.90
66328;DHT22;53133;52.862;6.602;2022-09-16T02:45:02;12.60;99.90
66328;DHT22;53133;52.862;6.602;2022-09-16T02:47:43;12.60;99.90
66328;DHT22;53133;52.862;6.602;2022-09-16T02:50:19;12.60;99.90
66328;DHT22;53133;52.862;6.602;2022-09-16T02:53:00;12.60;99.90
66328;DHT22;53133;52.862;6.602;2022-09-16T02:55:55;12.60;99.90
66328;DHT22;53133;52.862;6.602;2022-09-16T02:58:22;12.60;99.90
66328;DHT22;53133;52.862;6.602;2022-09-16T03:00:50;12.50;99.90
66328;DHT22;53133;52.862;6.602;2022-09-16T03:03:16;12.60;99.90
66328;DHT22;53133;52.862;6.602;2022-09-16T03:06:09;12.60;99.90
66328;DHT22;53133;52.862;6.602;2022-09-16T03:08:37;12.60;99.90
66328;DHT22;53133;52.862;6.602;2022-09-16T03:16:35;12.50;99.90
66328;DHT22;53133;52.862;6.602;2022-09-16T03:19:35;12.50;99.90
66328;DHT22;53133;52.862;6.602;2022-09-16T03:22:21;12.50;99.90
66328;DHT22;53133;52.862;6.602;2022-09-16T03:25:17;12.50;99.90
66328;DHT22;53133;52.862;6.602;2022-09-16T03:30:18;12.50;99.90
66328;DHT22;53133;52.862;6.602;2022-09-16T03:32:52;12.60;99.90
66328;DHT22;53133;52.862;6.602;2022-09-16T03:35:41;12.60;99.90
66328;DHT22;53133;52.862;6.602;2022-09-16T03:38:10;12.50;99.90
66328;DHT22;53133;52.862;6.602;2022-09-16T03:40:37;12.50;99.90
66328;DHT22;53133;52.862;6.602;2022-09-16T03:43:09;12.50;99.90
66328;DHT22;53133;52.862;6.602;2022-09-16T03:45:36;12.50;99.90
66328;DHT22;53133;52.862;6.602;2022-09-16T03:48:01;12.40;99.90
66328;DHT22;53133;52.862;6.602;2022-09-16T03:50:27;12.40;99.90
66328;DHT22;53133;52.862;6.602;2022-09-16T03:52:53;12.40;99.90
66328;DHT22;53133;52.862;6.602;2022-09-16T03:55:18;12.40;99.90
66328;DHT22;53133;52.862;6.602;2022-09-16T03:57:44;12.40;99.90
66328;DHT22;53133;52.862;6.602;2022-09-16T04:00:10;12.30;99.90
66328;DHT22;53133;52.862;6.602;2022-09-16T04:02:35;12.30;99.90
66328;DHT22;53133;52.862;6.602;2022-09-16T04:05:01;12.40;99.90
66328;DHT22;53133;52.862;6.602;2022-09-16T04:07:27;12.40;99.90
66328;DHT22;53133;52.862;6.602;2022-09-16T04:09:52;12.40;99.90
66328;DHT22;53133;52.862;6.602;2022-09-16T04:12:18;12.40;99.90
66328;DHT22;53133;52.862;6.602;2022-09-16T04:14:43;12.40;99.90
66328;DHT22;53133;52.862;6.602;2022-09-16T04:17:09;12.40;99.90
66328;DHT22;53133;52.862;6.602;2022-09-16T04:19:34;12.30;99.90
66328;DHT22;53133;52.862;6.602;2022-09-16T04:22:00;12.30;99.90
66328;DHT22;53133;52.862;6.602;2022-09-16T04:24:26;12.30;99.90
66328;DHT22;53133;52.862;6.602;2022-09-16T04:26:51;12.30;99.90
66328;DHT22;53133;52.862;6.602;2022-09-16T04:29:17;12.20;99.90
66328;DHT22;53133;52.862;6.602;2022-09-16T04:31:43;12.20;99.90
66328;DHT22;53133;52.862;6.602;2022-09-16T04:34:09;12.20;99.90
66328;DHT22;53133;52.862;6.602;2022-09-16T04:36:37;12.20;99.90
66328;DHT22;53133;52.862;6.602;2022-09-16T04:39:04;12.20;99.90
66328;DHT22;53133;52.862;6.602;2022-09-16T04:41:30;12.20;99.90
66328;DHT22;53133;52.862;6.602;2022-09-16T04:43:58;12.20;99.90
66328;DHT22;53133;52.862;6.602;2022-09-16T04:46:25;12.20;99.90
66328;DHT22;53133;52.862;6.602;2022-09-16T04:48:52;12.20;99.90
66328;DHT22;53133;52.862;6.602;2022-09-16T04:51:18;12.20;99.90
66328;DHT22;53133;52.862;6.602;2022-09-16T04:53:45;12.10;99.90
66328;DHT22;53133;52.862;6.602;2022-09-16T04:56:13;12.10;99.90
66328;DHT22;53133;52.862;6.602;2022-09-16T04:58:45;12.20;99.90
66328;DHT22;53133;52.862;6.602;2022-09-16T05:01:16;12.20;99.90
66328;DHT22;53133;52.862;6.602;2022-09-16T05:03:47;12.20;99.90
66328;DHT22;53133;52.862;6.602;2022-09-16T05:06:21;12.20;99.90
66328;DHT22;53133;52.862;6.602;2022-09-16T05:08:48;12.20;99.90
66328;DHT22;53133;52.862;6.602;2022-09-16T05:11:16;12.20;99.90
66328;DHT22;53133;52.862;6.602;2022-09-16T05:13:42;12.10;99.90
66328;DHT22;53133;52.862;6.602;2022-09-16T05:16:19;12.10;99.90
66328;DHT22;53133;52.862;6.602;2022-09-16T05:18:46;12.10;99.90
66328;DHT22;53133;52.862;6.602;2022-09-16T05:21:15;12.10;99.90
66328;DHT22;53133;52.862;6.602;2022-09-16T05:23:41;12.00;99.90
66328;DHT22;53133;52.862;6.602;2022-09-16T05:26:09;12.00;99.90
66328;DHT22;53133;52.862;6.602;2022-09-16T05:28:37;11.90;99.90
66328;DHT22;53133;52.862;6.602;2022-09-16T05:31:07;11.90;99.90
66328;DHT22;53133;52.862;6.602;2022-09-16T05:33:33;11.90;99.90
66328;DHT22;53133;52.862;6.602;2022-09-16T05:36:07;11.80;99.90
66328;DHT22;53133;52.862;6.602;2022-09-16T05:38:32;11.80;99.90
66328;DHT22;53133;52.862;6.602;2022-09-16T05:40:59;11.80;99.90
66328;DHT22;53133;52.862;6.602;2022-09-16T05:43:25;11.80;99.90
66328;DHT22;53133;52.862;6.602;2022-09-16T05:45:52;11.80;99.90
66328;DHT22;53133;52.862;6.602;2022-09-16T05:48:17;11.80;99.90
66328;DHT22;53133;52.862;6.602;2022-09-16T05:51:00;11.80;99.90
66328;DHT22;53133;52.862;6.602;2022-09-16T05:53:27;11.80;99.90
66328;DHT22;53133;52.862;6.602;2022-09-16T05:55:56;11.80;99.90
66328;DHT22;53133;52.862;6.602;2022-09-16T05:58:23;11.90;99.90
66328;DHT22;53133;52.862;6.602;2022-09-16T06:00:49;11.90;99.90
66328;DHT22;53133;52.862;6.602;2022-09-16T06:03:15;12.00;99.90
66328;DHT22;53133;52.862;6.602;2022-09-16T06:05:41;12.00;99.90
66328;DHT22;53133;52.862;6.602;2022-09-16T06:08:07;12.00;99.90
66328;DHT22;53133;52.862;6.602;2022-09-16T06:10:37;12.00;99.90
66328;DHT22;53133;52.862;6.602;2022-09-16T06:13:03;12.10;99.90
66328;DHT22;53133;52.862;6.602;2022-09-16T06:15:28;12.00;99.90
66328;DHT22;53133;52.862;6.602;2022-09-16T06:17:54;12.00;99.90
66328;DHT22;53133;52.862;6.602;2022-09-16T06:20:19;12.00;99.90
66328;DHT22;53133;52.862;6.602;2022-09-16T06:22:45;12.10;99.90
66328;DHT22;53133;52.862;6.602;2022-09-16T06:25:10;12.10;99.90
66328;DHT22;53133;52.862;6.602;2022-09-16T06:27:36;12.10;99.90
66328;DHT22;53133;52.862;6.602;2022-09-16T06:30:03;12.10;99.90
66328;DHT22;53133;52.862;6.602;2022-09-16T06:32:32;12.10;99.90
66328;DHT22;53133;52.862;6.602;2022-09-16T06:34:57;12.10;99.90
66328;DHT22;53133;52.862;6.602;2022-09-16T06:37:23;12.10;99.90
66328;DHT22;53133;52.862;6.602;2022-09-16T06:39:48;12.10;99.90
66328;DHT22;53133;52.862;6.602;2022-09-16T06:42:14;12.10;99.90
66328;DHT22;53133;52.862;6.602;2022-09-16T06:44:39;12.10;99.90
66328;DHT22;53133;52.862;6.602;2022-09-16T06:47:06;12.10;99.90
66328;DHT22;53133;52.862;6.602;2022-09-16T06:49:31;12.20;99.90
66328;DHT22;53133;52.862;6.602;2022-09-16T06:51:57;12.20;99.90
66328;DHT22;53133;52.862;6.602;2022-09-16T06:54:22;12.20;99.90
66328;DHT22;53133;52.862;6.602;2022-09-16T06:56:48;12.30;99.90
66328;DHT22;53133;52.862;6.602;2022-09-16T06:59:13;12.30;99.90
66328;DHT22;53133;52.862;6.602;2022-09-16T07:01:39;12.30;99.90
66328;DHT22;53133;52.862;6.602;2022-09-16T07:04:08;12.30;99.90
66328;DHT22;53133;52.862;6.602;2022-09-16T07:06:38;12.40;99.90
66328;DHT22;53133;52.862;6.602;2022-09-16T07:09:04;12.40;99.90
66328;DHT22;53133;52.862;6.602;2022-09-16T07:11:30;12.40;99.90
66328;DHT22;53133;52.862;6.602;2022-09-16T07:13:55;12.50;99.90
66328;DHT22;53133;52.862;6.602;2022-09-16T07:16:24;12.50;99.90
66328;DHT22;53133;52.862;6.602;2022-09-16T07:18:57;12.60;99.90
66328;DHT22;53133;52.862;6.602;2022-09-16T07:21:25;12.60;99.90
66328;DHT22;53133;52.862;6.602;2022-09-16T07:23:55;12.70;99.90
66328;DHT22;53133;52.862;6.602;2022-09-16T07:26:27;12.70;99.90
66328;DHT22;53133;52.862;6.602;2022-09-16T07:28:53;12.70;99.90
66328;DHT22;53133;52.862;6.602;2022-09-16T07:31:23;12.70;99.90
66328;DHT22;53133;52.862;6.602;2022-09-16T07:33:53;12.70;99.90
66328;DHT22;53133;52.862;6.602;2022-09-16T07:36:22;12.70;99.90
66328;DHT22;53133;52.862;6.602;2022-09-16T07:38:49;12.80;99.90
66328;DHT22;53133;52.862;6.602;2022-09-16T07:41:21;12.80;99.90
66328;DHT22;53133;52.862;6.602;2022-09-16T07:43:47;12.90;99.90
66328;DHT22;53133;52.862;6.602;2022-09-16T07:46:14;12.90;99.90
66328;DHT22;53133;52.862;6.602;2022-09-16T07:48:45;12.90;99.90
66328;DHT22;53133;52.862;6.602;2022-09-16T07:51:14;13.00;99.90
66328;DHT22;53133;52.862;6.602;2022-09-16T07:53:39;13.00;99.90
66328;DHT22;53133;52.862;6.602;2022-09-16T07:56:11;13.10;99.90
66328;DHT22;53133;52.862;6.602;2022-09-16T07:58:38;13.10;99.90
66328;DHT22;53133;52.862;6.602;2022-09-16T08:01:05;13.10;99.90
66328;DHT22;53133;52.862;6.602;2022-09-16T08:03:36;13.20;99.50
66328;DHT22;53133;52.862;6.602;2022-09-16T08:06:04;13.20;99.60
66328;DHT22;53133;52.862;6.602;2022-09-16T08:08:30;13.30;99.50
66328;DHT22;53133;52.862;6.602;2022-09-16T08:10:57;13.30;99.50
66328;DHT22;53133;52.862;6.602;2022-09-16T08:13:23;13.40;99.40
66328;DHT22;53133;52.862;6.602;2022-09-16T08:15:49;13.50;99.40
66328;DHT22;53133;52.862;6.602;2022-09-16T08:18:15;13.60;99.50
66328;DHT22;53133;52.862;6.602;2022-09-16T08:20:41;13.60;99.60
66328;DHT22;53133;52.862;6.602;2022-09-16T08:23:06;13.60;99.60
66328;DHT22;53133;52.862;6.602;2022-09-16T08:25:32;13.60;99.60
66328;DHT22;53133;52.862;6.602;2022-09-16T08:27:58;13.70;98.80
66328;DHT22;53133;52.862;6.602;2022-09-16T08:30:23;13.70;97.90
66328;DHT22;53133;52.862;6.602;2022-09-16T08:32:57;13.80;97.70
66328;DHT22;53133;52.862;6.602;2022-09-16T08:35:26;13.80;97.40
66328;DHT22;53133;52.862;6.602;2022-09-16T08:37:52;13.90;97.40
66328;DHT22;53133;52.862;6.602;2022-09-16T08:40:20;14.00;97.00
66328;DHT22;53133;52.862;6.602;2022-09-16T08:45:53;14.20;96.40
66328;DHT22;53133;52.862;6.602;2022-09-16T08:48:35;14.30;96.40
66328;DHT22;53133;52.862;6.602;2022-09-16T08:51:08;14.30;95.90
66328;DHT22;53133;52.862;6.602;2022-09-16T08:53:43;14.30;95.50
66328;DHT22;53133;52.862;6.602;2022-09-16T08:56:13;14.30;95.50
66328;DHT22;53133;52.862;6.602;2022-09-16T08:58:45;14.30;95.80
66328;DHT22;53133;52.862;6.602;2022-09-16T09:01:27;14.30;95.50
66328;DHT22;53133;52.862;6.602;2022-09-16T09:03:55;14.30;94.80
66328;DHT22;53133;52.862;6.602;2022-09-16T09:09:22;14.40;95.10
66328;DHT22;53133;52.862;6.602;2022-09-16T09:12:14;14.30;95.30
66328;DHT22;53133;52.862;6.602;2022-09-16T09:15:13;14.30;94.00
66328;DHT22;53133;52.862;6.602;2022-09-16T09:20:46;14.30;93.00
66328;DHT22;53133;52.862;6.602;2022-09-16T09:23:19;14.40;92.20
66328;DHT22;53133;52.862;6.602;2022-09-16T09:25:57;14.40;91.90
66328;DHT22;53133;52.862;6.602;2022-09-16T09:34:31;14.60;91.10
66328;DHT22;53133;52.862;6.602;2022-09-16T09:37:21;14.70;87.70
66328;DHT22;53133;52.862;6.602;2022-09-16T09:40:31;14.70;89.50
66328;DHT22;53133;52.862;6.602;2022-09-16T09:43:23;14.80;89.80
66328;DHT22;53133;52.862;6.602;2022-09-16T09:46:02;14.90;90.00
66328;DHT22;53133;52.862;6.602;2022-09-16T09:48:34;14.90;89.90
66328;DHT22;53133;52.862;6.602;2022-09-16T09:51:10;15.00;90.40
66328;DHT22;53133;52.862;6.602;2022-09-16T09:53:43;15.10;88.90
66328;DHT22;53133;52.862;6.602;2022-09-16T09:58:45;15.20;86.70
66328;DHT22;53133;52.862;6.602;2022-09-16T10:01:12;15.20;88.10
66328;DHT22;53133;52.862;6.602;2022-09-16T10:03:40;15.30;88.30
66328;DHT22;53133;52.862;6.602;2022-09-16T10:06:06;15.30;86.90
66328;DHT22;53133;52.862;6.602;2022-09-16T10:08:42;15.40;87.20
66328;DHT22;53133;52.862;6.602;2022-09-16T10:13:51;15.60;85.70
66328;DHT22;53133;52.862;6.602;2022-09-16T10:16:19;15.60;85.10
66328;DHT22;53133;52.862;6.602;2022-09-16T10:19:07;15.60;84.50
66328;DHT22;53133;52.862;6.602;2022-09-16T10:21:46;15.70;78.70
66328;DHT22;53133;52.862;6.602;2022-09-16T10:24:30;15.60;85.10
66328;DHT22;53133;52.862;6.602;2022-09-16T10:26:57;15.60;83.70
66328;DHT22;53133;52.862;6.602;2022-09-16T10:29:22;15.60;85.20
66328;DHT22;53133;52.862;6.602;2022-09-16T10:31:49;15.50;86.00
66328;DHT22;53133;52.862;6.602;2022-09-16T10:34:27;15.30;88.20
66328;DHT22;53133;52.862;6.602;2022-09-16T10:37:00;15.20;90.00
66328;DHT22;53133;52.862;6.602;2022-09-16T10:39:28;14.90;90.50
66328;DHT22;53133;52.862;6.602;2022-09-16T10:41:54;14.80;91.10
66328;DHT22;53133;52.862;6.602;2022-09-16T10:44:26;14.80;91.60
66328;DHT22;53133;52.862;6.602;2022-09-16T10:47:00;14.90;91.60
66328;DHT22;53133;52.862;6.602;2022-09-16T10:54:38;15.10;91.00
66328;DHT22;53133;52.862;6.602;2022-09-16T10:57:22;15.20;91.20
66328;DHT22;53133;52.862;6.602;2022-09-16T11:00:03;15.30;90.80
66328;DHT22;53133;52.862;6.602;2022-09-16T11:08:15;15.60;88.70
66328;DHT22;53133;52.862;6.602;2022-09-16T11:18:55;16.00;87.10
66328;DHT22;53133;52.862;6.602;2022-09-16T11:21:37;16.10;84.60
66328;DHT22;53133;52.862;6.602;2022-09-16T11:26:47;16.30;83.80
66328;DHT22;53133;52.862;6.602;2022-09-16T11:35:32;16.10;79.10
66328;DHT22;53133;52.862;6.602;2022-09-16T11:40:48;16.20;79.80
66328;DHT22;53133;52.862;6.602;2022-09-16T11:49:08;16.50;82.90
66328;DHT22;53133;52.862;6.602;2022-09-16T11:54:48;16.50;82.70
66328;DHT22;53133;52.862;6.602;2022-09-16T11:57:18;16.10;87.90
66328;DHT22;53133;52.862;6.602;2022-09-16T12:00:12;15.50;90.70
66328;DHT22;53133;52.862;6.602;2022-09-16T12:03:08;15.20;92.40
66328;DHT22;53133;52.862;6.602;2022-09-16T12:05:52;15.00;93.50
66328;DHT22;53133;52.862;6.602;2022-09-16T12:08:38;14.90;92.90
66328;DHT22;53133;52.862;6.602;2022-09-16T12:11:30;14.90;93.60
66328;DHT22;53133;52.862;6.602;2022-09-16T12:14:12;15.00;93.40
66328;DHT22;53133;52.862;6.602;2022-09-16T12:16:54;15.10;93.20
66328;DHT22;53133;52.862;6.602;2022-09-16T12:19:28;15.10;92.90
66328;DHT22;53133;52.862;6.602;2022-09-16T12:21:59;15.10;92.80
66328;DHT22;53133;52.862;6.602;2022-09-16T12:24:39;15.10;92.80
66328;DHT22;53133;52.862;6.602;2022-09-16T12:27:26;15.10;93.20
66328;DHT22;53133;52.862;6.602;2022-09-16T12:30:12;15.00;93.10
66328;DHT22;53133;52.862;6.602;2022-09-16T12:35:31;14.90;92.60
66328;DHT22;53133;52.862;6.602;2022-09-16T12:37:57;14.90;92.30
66328;DHT22;53133;52.862;6.602;2022-09-16T12:40:30;14.90;92.70
66328;DHT22;53133;52.862;6.602;2022-09-16T12:57:21;15.90;92.10
66328;DHT22;53133;52.862;6.602;2022-09-16T13:00:16;16.00;91.90
66328;DHT22;53133;52.862;6.602;2022-09-16T13:03:14;16.00;91.70
66328;DHT22;53133;52.862;6.602;2022-09-16T13:05:45;16.00;91.00
66328;DHT22;53133;52.862;6.602;2022-09-16T13:08:21;16.00;90.40
66328;DHT22;53133;52.862;6.602;2022-09-16T13:11:05;16.00;89.70
66328;DHT22;53133;52.862;6.602;2022-09-16T13:13:38;16.00;89.40
66328;DHT22;53133;52.862;6.602;2022-09-16T13:16:06;16.10;90.40
66328;DHT22;53133;52.862;6.602;2022-09-16T13:18:42;16.20;89.90
66328;DHT22;53133;52.862;6.602;2022-09-16T13:21:21;16.20;87.20
66328;DHT22;53133;52.862;6.602;2022-09-16T13:24:10;16.30;86.50
66328;DHT22;53133;52.862;6.602;2022-09-16T13:26:42;16.40;85.30
66328;DHT22;53133;52.862;6.602;2022-09-16T13:32:03;16.30;82.60
66328;DHT22;53133;52.862;6.602;2022-09-16T13:34:29;16.30;85.80
66328;DHT22;53133;52.862;6.602;2022-09-16T13:36:55;16.40;85.70
66328;DHT22;53133;52.862;6.602;2022-09-16T13:39:31;16.40;86.40
66328;DHT22;53133;52.862;6.602;2022-09-16T13:42:09;16.40;86.60
66328;DHT22;53133;52.862;6.602;2022-09-16T13:44:39;16.30;83.40
66328;DHT22;53133;52.862;6.602;2022-09-16T13:50:18;16.00;87.20
66328;DHT22;53133;52.862;6.602;2022-09-16T13:52:31;15.90;88.40
66328;DHT22;53133;52.862;6.602;2022-09-16T13:54:59;15.90;89.60
66328;DHT22;53133;52.862;6.602;2022-09-16T13:57:59;15.90;90.10
66328;DHT22;53133;52.862;6.602;2022-09-16T14:00:53;16.00;90.30
66328;DHT22;53133;52.862;6.602;2022-09-16T14:09:35;16.00;90.40
66328;DHT22;53133;52.862;6.602;2022-09-16T14:12:19;15.80;90.70
66328;DHT22;53133;52.862;6.602;2022-09-16T14:14:48;15.70;90.90
66328;DHT22;53133;52.862;6.602;2022-09-16T14:17:21;15.30;92.20
66328;DHT22;53133;52.862;6.602;2022-09-16T14:19:50;14.90;93.90
66328;DHT22;53133;52.862;6.602;2022-09-16T14:22:19;14.60;95.30
66328;DHT22;53133;52.862;6.602;2022-09-16T14:24:50;14.40;95.90
66328;DHT22;53133;52.862;6.602;2022-09-16T14:27:31;14.20;96.10
66328;DHT22;53133;52.862;6.602;2022-09-16T14:30:04;14.00;97.50
66328;DHT22;53133;52.862;6.602;2022-09-16T14:32:33;13.90;97.20
66328;DHT22;53133;52.862;6.602;2022-09-16T14:35:08;13.80;97.90
66328;DHT22;53133;52.862;6.602;2022-09-16T14:37:35;13.80;98.20
66328;DHT22;53133;52.862;6.602;2022-09-16T14:40:10;13.80;98.40
66328;DHT22;53133;52.862;6.602;2022-09-16T14:42:38;13.80;98.60
66328;DHT22;53133;52.862;6.602;2022-09-16T14:45:13;13.80;98.40
66328;DHT22;53133;52.862;6.602;2022-09-16T14:47:41;13.70;98.60
66328;DHT22;53133;52.862;6.602;2022-09-16T14:50:11;13.70;98.80
66328;DHT22;53133;52.862;6.602;2022-09-16T14:52:38;13.80;98.80
66328;DHT22;53133;52.862;6.602;2022-09-16T14:55:27;13.90;99.30
66328;DHT22;53133;52.862;6.602;2022-09-16T14:57:54;14.10;99.80
66328;DHT22;53133;52.862;6.602;2022-09-16T15:00:24;14.20;98.90
66328;DHT22;53133;52.862;6.602;2022-09-16T15:02:59;14.20;98.60
66328;DHT22;53133;52.862;6.602;2022-09-16T15:05:37;14.20;98.20
66328;DHT22;53133;52.862;6.602;2022-09-16T15:08:20;14.30;98.20
66328;DHT22;53133;52.862;6.602;2022-09-16T15:10:50;14.30;97.90
66328;DHT22;53133;52.862;6.602;2022-09-16T15:13:18;14.40;97.70
66328;DHT22;53133;52.862;6.602;2022-09-16T15:15:48;14.40;97.20
66328;DHT22;53133;52.862;6.602;2022-09-16T15:18:26;14.50;96.60
66328;DHT22;53133;52.862;6.602;2022-09-16T15:21:08;14.40;96.10
66328;DHT22;53133;52.862;6.602;2022-09-16T15:23:34;14.50;96.20
66328;DHT22;53133;52.862;6.602;2022-09-16T15:26:12;14.40;96.30
66328;DHT22;53133;52.862;6.602;2022-09-16T15:28:59;14.40;96.30
66328;DHT22;53133;52.862;6.602;2022-09-16T15:31:39;14.40;96.50
66328;DHT22;53133;52.862;6.602;2022-09-16T15:34:18;14.40;96.70
66328;DHT22;53133;52.862;6.602;2022-09-16T15:36:58;14.40;96.60
66328;DHT22;53133;52.862;6.602;2022-09-16T15:39:28;14.30;96.60
66328;DHT22;53133;52.862;6.602;2022-09-16T15:42:16;14.30;96.70
66328;DHT22;53133;52.862;6.602;2022-09-16T15:50:00;14.20;96.50
66328;DHT22;53133;52.862;6.602;2022-09-16T15:52:27;14.10;96.70
66328;DHT22;53133;52.862;6.602;2022-09-16T15:54:59;14.10;96.60
66328;DHT22;53133;52.862;6.602;2022-09-16T15:57:46;14.10;96.50
66328;DHT22;53133;52.862;6.602;2022-09-16T16:00:12;14.10;96.60
66328;DHT22;53133;52.862;6.602;2022-09-16T16:02:44;14.10;96.70
66328;DHT22;53133;52.862;6.602;2022-09-16T16:05:24;14.10;96.70
66328;DHT22;53133;52.862;6.602;2022-09-16T16:07:59;14.00;96.60
66328;DHT22;53133;52.862;6.602;2022-09-16T16:10:27;14.00;96.70
66328;DHT22;53133;52.862;6.602;2022-09-16T16:12:56;14.00;96.90
66328;DHT22;53133;52.862;6.602;2022-09-16T16:15:32;14.00;96.80
66328;DHT22;53133;52.862;6.602;2022-09-16T16:18:01;14.00;96.90
66328;DHT22;53133;52.862;6.602;2022-09-16T16:20:28;13.90;96.90
66328;DHT22;53133;52.862;6.602;2022-09-16T16:22:57;13.90;97.00
66328;DHT22;53133;52.862;6.602;2022-09-16T16:25:22;13.90;97.10
66328;DHT22;53133;52.862;6.602;2022-09-16T16:27:48;13.80;97.10
66328;DHT22;53133;52.862;6.602;2022-09-16T16:30:14;13.80;97.40
66328;DHT22;53133;52.862;6.602;2022-09-16T16:32:39;13.80;97.60
66328;DHT22;53133;52.862;6.602;2022-09-16T16:35:05;13.80;97.80
66328;DHT22;53133;52.862;6.602;2022-09-16T16:37:31;13.70;98.20
66328;DHT22;53133;52.862;6.602;2022-09-16T16:39:57;13.80;98.60
66328;DHT22;53133;52.862;6.602;2022-09-16T16:42:23;13.70;98.70
66328;DHT22;53133;52.862;6.602;2022-09-16T16:44:49;13.70;98.80
66328;DHT22;53133;52.862;6.602;2022-09-16T16:47:15;13.70;99.00
66328;DHT22;53133;52.862;6.602;2022-09-16T16:49:40;13.80;99.10
66328;DHT22;53133;52.862;6.602;2022-09-16T16:52:06;13.70;99.40
66328;DHT22;53133;52.862;6.602;2022-09-16T16:54:33;13.80;99.10
66328;DHT22;53133;52.862;6.602;2022-09-16T16:56:59;13.80;99.00
66328;DHT22;53133;52.862;6.602;2022-09-16T16:59:25;13.80;99.10
66328;DHT22;53133;52.862;6.602;2022-09-16T17:01:54;13.80;99.10
66328;DHT22;53133;52.862;6.602;2022-09-16T17:04:20;13.80;99.30
66328;DHT22;53133;52.862;6.602;2022-09-16T17:06:46;13.70;99.60
66328;DHT22;53133;52.862;6.602;2022-09-16T17:09:13;13.70;99.90
66328;DHT22;53133;52.862;6.602;2022-09-16T17:11:53;13.60;99.90
66328;DHT22;53133;52.862;6.602;2022-09-16T17:14:20;13.60;99.90
66328;DHT22;53133;52.862;6.602;2022-09-16T17:16:46;13.50;99.90
66328;DHT22;53133;52.862;6.602;2022-09-16T17:19:13;13.40;99.90
66328;DHT22;53133;52.862;6.602;2022-09-16T17:21:39;13.40;99.90
66328;DHT22;53133;52.862;6.602;2022-09-16T17:24:06;13.30;99.90
66328;DHT22;53133;52.862;6.602;2022-09-16T17:26:32;13.30;99.90
66328;DHT22;53133;52.862;6.602;2022-09-16T17:28:58;13.30;99.90
66328;DHT22;53133;52.862;6.602;2022-09-16T17:31:29;13.20;99.90
66328;DHT22;53133;52.862;6.602;2022-09-16T17:33:57;13.20;99.90
66328;DHT22;53133;52.862;6.602;2022-09-16T17:36:25;13.20;99.90
66328;DHT22;53133;52.862;6.602;2022-09-16T17:39:01;13.20;99.90
66328;DHT22;53133;52.862;6.602;2022-09-16T17:41:27;13.20;99.90
66328;DHT22;53133;52.862;6.602;2022-09-16T17:43:55;13.10;99.90
66328;DHT22;53133;52.862;6.602;2022-09-16T17:46:22;13.20;99.90
66328;DHT22;53133;52.862;6.602;2022-09-16T17:48:49;13.20;99.90
66328;DHT22;53133;52.862;6.602;2022-09-16T17:51:16;13.10;99.90
66328;DHT22;53133;52.862;6.602;2022-09-16T17:53:42;13.10;99.90
66328;DHT22;53133;52.862;6.602;2022-09-16T17:56:12;13.10;99.90
66328;DHT22;53133;52.862;6.602;2022-09-16T17:58:40;13.10;99.90
66328;DHT22;53133;52.862;6.602;2022-09-16T18:01:14;13.20;99.90
66328;DHT22;53133;52.862;6.602;2022-09-16T18:03:42;13.10;99.90
66328;DHT22;53133;52.862;6.602;2022-09-16T18:06:16;13.10;99.90
66328;DHT22;53133;52.862;6.602;2022-09-16T18:08:42;13.10;99.90